X  Close Metar Aviation Weather Data     NZAA Auckland International
Temperature
17°C Temperature
15°C Dewpoint
88% Humidity



Wind
5 KM/H
3 MPH
1 M/S
3 KTS



200°
SSW
Current Conditions

Mostly Cloudy Mostly Cloudy
Pressure 1016.92 (hPa) - 30.03 (inHg)
Visibility 6.2 (mile) - 10 (km)
Airport
Airport-code NZAA

Location: Auckland International
Distance: 130 (km)

Metar:
NZAA 260130Z AUTO 20003KT 9999 BKN023/// BKN060/// 17/15 Q1017 NOSIG

Time: 26-05-2020 13:30 NZST